createdAt,value
2022-12-12T00:02:25.291Z,33.97
2022-12-12T00:04:59.403Z,35.10
2022-12-12T00:07:29.148Z,33.40
2022-12-12T00:09:58.867Z,33.80
2022-12-12T00:12:28.679Z,36.13
2022-12-12T00:14:58.485Z,35.27
2022-12-12T00:17:28.524Z,36.53
2022-12-12T00:19:58.323Z,34.13
2022-12-12T00:22:28.325Z,33.03
2022-12-12T00:24:58.339Z,32.67
2022-12-12T00:27:28.076Z,34.03
2022-12-12T00:29:58.110Z,32.03
2022-12-12T00:32:27.829Z,30.70
2022-12-12T00:34:57.871Z,31.82
2022-12-12T00:37:27.660Z,32.30
2022-12-12T00:39:58.275Z,31.25
2022-12-12T00:42:28.453Z,36.10
2022-12-12T00:44:58.586Z,33.42
2022-12-12T00:47:28.381Z,31.50
2022-12-12T00:49:58.418Z,34.38
2022-12-12T00:52:28.174Z,36.27
2022-12-12T00:54:58.430Z,34.80
2022-12-12T00:57:28.001Z,34.00
2022-12-12T00:59:58.680Z,33.20
2022-12-12T01:02:28.650Z,30.82
2022-12-12T01:04:58.331Z,32.87
2022-12-12T01:07:28.661Z,33.83
2022-12-12T01:09:58.457Z,31.77
2022-12-12T01:12:28.270Z,32.88
2022-12-12T01:14:58.071Z,30.90
2022-12-12T01:17:27.866Z,33.03
2022-12-12T01:19:57.906Z,29.00
2022-12-12T01:22:27.455Z,32.40
2022-12-12T01:24:57.208Z,28.70
2022-12-12T01:27:27.478Z,32.93
2022-12-12T01:29:59.144Z,29.75
2022-12-12T01:32:29.931Z,29.35
2022-12-12T01:34:59.909Z,29.43
2022-12-12T01:37:29.661Z,32.63
2022-12-12T01:39:59.372Z,31.43
2022-12-12T01:42:29.889Z,29.02
2022-12-12T01:44:59.689Z,29.43
2022-12-12T01:47:29.401Z,29.55
2022-12-12T01:50:02.198Z,33.00
2022-12-12T01:52:37.989Z,30.50
2022-12-12T01:55:10.503Z,30.17
2022-12-12T01:57:43.562Z,27.97
2022-12-12T02:00:15.727Z,29.43
2022-12-12T02:02:47.215Z,29.80
2022-12-12T02:05:25.121Z,28.90
2022-12-12T02:07:55.756Z,28.93
2022-12-12T02:10:25.515Z,27.63
2022-12-12T02:12:58.665Z,25.95
2022-12-12T02:15:31.794Z,32.73
2022-12-12T02:18:12.362Z,32.73
2022-12-12T02:21:06.667Z,29.03
2022-12-12T02:23:57.511Z,31.57
2022-12-12T02:26:32.445Z,31.57
2022-12-12T02:29:10.405Z,31.30
2022-12-12T02:31:45.749Z,31.57
2022-12-12T02:34:31.545Z,30.67
2022-12-12T02:37:21.036Z,41.28
2022-12-12T02:39:59.840Z,33.47
2022-12-12T02:42:32.600Z,33.20
2022-12-12T02:45:14.589Z,33.30
2022-12-12T02:47:49.965Z,39.40
2022-12-12T02:50:25.279Z,37.00
2022-12-12T02:52:55.010Z,37.13
2022-12-12T02:55:25.031Z,33.70
2022-12-12T02:57:55.892Z,37.38
2022-12-12T03:00:26.169Z,36.90
2022-12-12T03:03:34.628Z,38.67
2022-12-12T03:06:37.753Z,37.17
2022-12-12T03:09:29.452Z,41.33
2022-12-12T03:12:04.888Z,37.30
2022-12-12T03:14:58.037Z,43.10
2022-12-12T03:17:42.454Z,38.50
2022-12-12T03:20:35.879Z,36.85
2022-12-12T03:23:11.685Z,40.08
2022-12-12T03:26:05.627Z,38.53
2022-12-12T03:28:39.586Z,41.58
2022-12-12T03:31:11.826Z,38.40
2022-12-12T03:33:45.260Z,38.63
2022-12-12T03:36:23.760Z,40.33
2022-12-12T03:39:11.764Z,37.35
2022-12-12T03:41:44.643Z,36.67
2022-12-12T03:44:28.987Z,39.27
2022-12-12T03:47:04.696Z,38.40
2022-12-12T03:49:37.476Z,38.40
2022-12-12T03:52:19.140Z,41.80
2022-12-12T03:54:52.231Z,40.12
2022-12-12T03:57:25.032Z,43.00
2022-12-12T04:00:00.499Z,42.37
2022-12-12T04:02:33.065Z,39.67
2022-12-12T04:05:17.672Z,38.77
2022-12-12T04:07:56.438Z,42.20
2022-12-12T04:10:45.977Z,47.98
2022-12-12T04:13:20.392Z,35.87
2022-12-12T04:15:55.886Z,39.87
2022-12-12T04:18:47.729Z,41.45
2022-12-12T04:21:37.977Z,48.33
2022-12-12T04:24:32.856Z,40.50
2022-12-12T04:27:20.815Z,38.40
2022-12-12T04:29:53.636Z,42.43
2022-12-12T04:32:28.877Z,38.23
2022-12-12T04:35:13.261Z,38.87
2022-12-12T04:37:49.004Z,42.53
2022-12-12T04:40:21.484Z,41.10
2022-12-12T04:43:03.500Z,46.75
2022-12-12T04:45:36.352Z,45.93
2022-12-12T04:48:08.991Z,41.50
2022-12-12T04:50:40.282Z,43.67
2022-12-12T04:53:18.586Z,41.37
2022-12-12T04:55:52.331Z,36.03
2022-12-12T04:58:22.235Z,40.98
2022-12-12T05:01:06.750Z,40.60
2022-12-12T05:03:51.536Z,38.13
2022-12-12T05:06:24.665Z,43.33
2022-12-12T05:08:56.051Z,39.57
2022-12-12T05:11:26.284Z,41.28
2022-12-12T05:13:56.073Z,38.13
2022-12-12T05:16:35.218Z,36.08
2022-12-12T05:19:05.341Z,44.07
2022-12-12T05:21:35.068Z,42.57
2022-12-12T05:24:05.060Z,43.57
2022-12-12T05:26:36.337Z,45.53
2022-12-12T05:29:07.682Z,45.35
2022-12-12T05:31:37.901Z,42.23
2022-12-12T05:34:07.650Z,43.50
2022-12-12T05:36:37.423Z,45.57
2022-12-12T05:39:07.473Z,50.15
2022-12-12T05:41:37.238Z,49.93
2022-12-12T05:44:07.041Z,45.37
2022-12-12T05:46:37.142Z,49.70
2022-12-12T05:49:06.883Z,46.30
2022-12-12T05:51:36.632Z,40.73
2022-12-12T05:54:06.376Z,39.00
2022-12-12T05:56:36.432Z,40.17
2022-12-12T05:59:06.486Z,40.38
2022-12-12T06:01:36.295Z,40.57
2022-12-12T06:04:05.920Z,43.17
2022-12-12T06:06:35.422Z,39.03
2022-12-12T06:09:04.984Z,47.20
2022-12-12T06:11:34.806Z,43.50
2022-12-12T06:14:05.521Z,40.03
2022-12-12T06:16:36.650Z,49.13
2022-12-12T06:19:06.392Z,48.17
2022-12-12T06:21:35.876Z,45.60
2022-12-12T06:24:07.565Z,42.98
2022-12-12T06:26:37.613Z,45.50
2022-12-12T06:29:07.716Z,49.17
2022-12-12T06:31:37.875Z,43.05
2022-12-12T06:34:09.447Z,46.48
2022-12-12T06:36:39.426Z,42.07
2022-12-12T06:39:09.769Z,45.00
2022-12-12T06:41:39.811Z,45.43
2022-12-12T06:44:10.700Z,45.52
2022-12-12T06:46:40.733Z,46.83
2022-12-12T06:49:10.606Z,45.40
2022-12-12T06:51:45.086Z,45.67
2022-12-12T06:54:18.498Z,50.52
2022-12-12T06:56:48.924Z,43.85
2022-12-12T06:59:18.939Z,44.03
2022-12-12T07:01:48.759Z,44.73
2022-12-12T07:04:18.370Z,40.50
2022-12-12T07:06:48.122Z,41.23
2022-12-12T07:09:19.152Z,50.27
2022-12-12T07:11:48.945Z,51.73
2022-12-12T07:14:18.899Z,45.16
2022-12-12T07:16:48.958Z,48.28
2022-12-12T07:19:18.719Z,49.33
2022-12-12T07:21:48.452Z,45.47
2022-12-12T07:24:17.902Z,48.23
2022-12-12T07:26:47.650Z,48.33
2022-12-12T07:29:18.229Z,46.07
2022-12-12T07:31:47.987Z,46.77
2022-12-12T07:34:17.971Z,45.46
2022-12-12T07:36:48.028Z,47.85
2022-12-12T07:39:20.990Z,50.65
2022-12-12T07:41:49.509Z,53.15
2022-12-12T07:44:20.973Z,54.03
2022-12-12T07:46:51.085Z,52.85
2022-12-12T07:49:20.781Z,44.57
2022-12-12T07:51:50.536Z,46.67
2022-12-12T07:54:20.425Z,52.33
2022-12-12T07:56:49.880Z,53.70
2022-12-12T07:59:19.705Z,55.80
2022-12-12T08:01:49.225Z,46.48
2022-12-12T08:04:19.105Z,55.67
2022-12-12T08:06:52.680Z,57.87
2022-12-12T08:09:20.260Z,57.90
2022-12-12T08:11:50.075Z,64.17
2022-12-12T08:14:19.536Z,63.60
2022-12-12T08:16:49.270Z,62.33
2022-12-12T08:19:19.571Z,61.33
2022-12-12T08:21:49.315Z,55.57
2022-12-12T08:24:19.365Z,52.46
2022-12-12T08:26:52.000Z,52.50
2022-12-12T08:29:21.897Z,54.97
2022-12-12T08:31:51.644Z,57.77
2022-12-12T08:34:21.206Z,55.33
2022-12-12T08:36:52.425Z,58.77
2022-12-12T08:39:22.622Z,56.73
2022-12-12T08:41:52.538Z,56.03
2022-12-12T08:44:22.600Z,54.95
2022-12-12T08:46:52.402Z,56.13
2022-12-12T08:49:22.297Z,55.80
2022-12-12T08:51:52.133Z,61.43
2022-12-12T08:54:21.878Z,63.10
2022-12-12T08:56:51.687Z,69.60
2022-12-12T08:59:21.135Z,51.05
2022-12-12T09:01:51.377Z,55.38
2022-12-12T09:04:21.100Z,48.77
2022-12-12T09:06:50.902Z,50.40
2022-12-12T09:09:20.938Z,52.50
2022-12-12T09:11:50.689Z,52.17
2022-12-12T09:14:20.256Z,53.33
2022-12-12T09:16:50.077Z,49.90
2022-12-12T09:19:20.112Z,45.40
2022-12-12T09:21:49.869Z,51.63
2022-12-12T09:24:19.581Z,55.43
2022-12-12T09:26:49.321Z,52.33
2022-12-12T09:29:19.136Z,50.80
2022-12-12T09:31:48.974Z,51.93
2022-12-12T09:34:18.393Z,55.23
2022-12-12T09:36:48.142Z,50.87
2022-12-12T09:39:17.895Z,51.40
2022-12-12T09:41:47.637Z,51.60
2022-12-12T09:44:20.208Z,54.24
2022-12-12T09:46:53.748Z,55.00
2022-12-12T09:49:31.998Z,49.27
2022-12-12T09:52:03.680Z,49.13
2022-12-12T09:54:33.563Z,46.67
2022-12-12T09:57:21.997Z,47.07
2022-12-12T10:00:00.831Z,48.00
2022-12-12T10:02:51.357Z,44.60
2022-12-12T10:05:24.905Z,45.65
2022-12-12T10:08:23.238Z,47.97
2022-12-12T10:10:58.867Z,45.10
2022-12-12T10:13:30.421Z,41.10
2022-12-12T10:16:05.771Z,40.97
2022-12-12T10:18:44.561Z,41.27
2022-12-12T10:21:17.358Z,41.83
2022-12-12T10:23:53.505Z,36.57
2022-12-12T10:26:26.251Z,36.42
2022-12-12T10:28:59.021Z,43.80
2022-12-12T10:31:31.901Z,40.20
2022-12-12T10:37:03.822Z,39.35
2022-12-12T10:39:45.241Z,38.97
2022-12-12T10:42:20.545Z,40.00
2022-12-12T10:44:55.578Z,34.43
2022-12-12T10:47:25.187Z,44.70
2022-12-12T10:50:13.729Z,39.70
2022-12-12T10:52:43.551Z,40.57
2022-12-12T10:55:22.979Z,40.92
2022-12-12T10:58:04.060Z,36.85
2022-12-12T11:00:36.588Z,36.57
2022-12-12T11:03:24.709Z,33.45
2022-12-12T11:05:56.116Z,38.47
2022-12-12T11:08:33.273Z,34.90
2022-12-12T11:11:24.515Z,35.30
2022-12-12T11:14:00.322Z,35.73
2022-12-12T11:16:33.322Z,35.60
2022-12-12T11:19:20.061Z,30.23
2022-12-12T11:24:24.807Z,30.97
2022-12-12T11:27:00.782Z,33.08
2022-12-12T11:29:48.027Z,30.77
2022-12-12T11:32:23.767Z,35.20
2022-12-12T11:34:56.545Z,32.93
2022-12-12T11:37:29.601Z,31.03
2022-12-12T11:39:59.345Z,31.57
2022-12-12T11:42:34.891Z,32.80
2022-12-12T11:45:13.173Z,26.70
2022-12-12T11:47:46.053Z,34.55
2022-12-12T11:50:29.199Z,30.60
2022-12-12T11:53:02.119Z,33.90
2022-12-12T11:55:46.567Z,35.20
2022-12-12T11:58:24.904Z,33.70
2022-12-12T12:01:15.735Z,38.00
2022-12-12T12:03:57.011Z,32.23
2022-12-12T12:06:35.375Z,31.63
2022-12-12T12:09:20.307Z,31.73
2022-12-12T12:12:05.102Z,36.53
2022-12-12T12:14:40.705Z,27.90
2022-12-12T12:17:15.687Z,27.40
2022-12-12T12:19:48.497Z,31.35
2022-12-12T12:22:41.793Z,29.58
2022-12-12T12:25:17.148Z,29.53
2022-12-12T12:28:20.732Z,30.67
2022-12-12T12:30:59.629Z,27.33
2022-12-12T12:33:44.142Z,26.77
2022-12-12T12:36:21.075Z,23.77
2022-12-12T12:39:07.177Z,30.17
2022-12-12T12:42:04.323Z,27.23
2022-12-12T12:44:55.040Z,22.13
2022-12-12T12:47:33.470Z,23.13
2022-12-12T12:50:20.317Z,29.57
2022-12-12T12:53:11.727Z,24.03
2022-12-12T12:55:47.157Z,26.10
2022-12-12T12:58:25.395Z,28.88
2022-12-12T13:00:58.213Z,29.33
2022-12-12T13:03:31.057Z,24.80
2022-12-12T13:06:04.102Z,28.43
2022-12-12T13:08:39.908Z,29.13
2022-12-12T13:11:18.306Z,24.43
2022-12-12T13:13:49.972Z,25.37
2022-12-12T13:16:25.995Z,25.30
2022-12-12T13:19:07.577Z,24.95
2022-12-12T13:21:54.894Z,22.05
2022-12-12T13:24:59.799Z,24.27
2022-12-12T13:27:36.546Z,24.37
2022-12-12T13:30:17.008Z,24.17
2022-12-12T13:33:06.275Z,24.07
2022-12-12T13:35:43.466Z,23.67
2022-12-12T13:38:21.769Z,23.47
2022-12-12T13:41:09.022Z,21.20
2022-12-12T13:43:44.741Z,21.40
2022-12-12T13:49:02.659Z,23.05
2022-12-12T13:51:34.777Z,23.53
2022-12-12T13:57:02.677Z,24.47
2022-12-12T13:59:32.846Z,27.60
2022-12-12T14:02:21.279Z,27.77
2022-12-12T14:05:10.483Z,28.57
2022-12-12T14:07:42.403Z,24.57
2022-12-12T14:10:18.848Z,23.20
2022-12-12T14:12:48.758Z,24.63
2022-12-12T14:15:33.704Z,20.50
2022-12-12T14:18:04.894Z,22.13
2022-12-12T14:20:38.931Z,27.50
2022-12-12T14:23:11.714Z,28.37
2022-12-12T14:25:42.782Z,26.20
2022-12-12T14:28:21.024Z,23.38
2022-12-12T14:31:05.723Z,27.27
2022-12-12T14:33:47.401Z,22.63
2022-12-12T14:36:40.778Z,27.10
2022-12-12T14:39:21.892Z,23.47
2022-12-12T14:41:53.268Z,20.73
2022-12-12T14:44:34.890Z,21.53
2022-12-12T14:47:04.853Z,23.73
2022-12-12T14:49:34.612Z,23.20
2022-12-12T14:52:06.486Z,24.82
2022-12-12T14:54:37.756Z,23.32
2022-12-12T14:57:08.422Z,24.23
2022-12-12T14:59:42.271Z,22.87
2022-12-12T15:02:25.879Z,21.16
2022-12-12T15:05:04.348Z,27.13
2022-12-12T15:07:33.353Z,21.97
2022-12-12T15:10:03.466Z,23.67
2022-12-12T15:12:36.415Z,30.33
2022-12-12T15:15:09.379Z,26.70
2022-12-12T15:17:50.399Z,26.37
2022-12-12T15:20:25.846Z,22.90
2022-12-12T15:25:37.132Z,23.27
2022-12-12T15:28:14.902Z,29.00
2022-12-12T15:30:45.785Z,25.30
2022-12-12T15:33:21.826Z,27.55
2022-12-12T15:35:59.515Z,26.70
2022-12-12T15:38:25.594Z,24.00
2022-12-12T15:40:57.805Z,28.23
2022-12-12T15:43:29.884Z,26.40
2022-12-12T15:46:04.100Z,28.38
2022-12-12T15:48:33.996Z,23.33
2022-12-12T15:51:06.798Z,26.83
2022-12-12T15:53:39.512Z,30.97
2022-12-12T15:56:16.155Z,26.20
2022-12-12T15:58:48.527Z,28.93
2022-12-12T16:01:22.494Z,25.37
2022-12-12T16:04:06.280Z,31.55
2022-12-12T16:06:47.019Z,32.83
2022-12-12T16:09:21.972Z,33.97
2022-12-12T16:11:55.036Z,34.45
2022-12-12T16:14:41.370Z,29.67
2022-12-12T16:17:13.314Z,35.47
2022-12-12T16:19:46.363Z,32.60
2022-12-12T16:22:40.918Z,32.70
2022-12-12T16:25:28.449Z,32.47
2022-12-12T16:28:12.966Z,30.43
2022-12-12T16:30:44.143Z,35.57
2022-12-12T16:33:34.213Z,34.57
2022-12-12T16:36:09.439Z,33.05
2022-12-12T16:38:40.233Z,43.00
2022-12-12T16:41:15.699Z,36.00
2022-12-12T16:46:23.364Z,34.50
2022-12-12T16:48:53.910Z,34.47
2022-12-12T16:51:27.959Z,37.33
2022-12-12T16:53:57.876Z,39.80
2022-12-12T16:56:27.667Z,34.53
2022-12-12T16:58:57.490Z,42.83
2022-12-12T17:01:27.350Z,36.87
2022-12-12T17:03:57.795Z,36.97
2022-12-12T17:06:27.546Z,38.90
2022-12-12T17:08:57.279Z,38.30
2022-12-12T17:11:27.440Z,43.43
2022-12-12T17:13:57.177Z,42.90
2022-12-12T17:16:28.064Z,39.90
2022-12-12T17:18:58.416Z,34.43
2022-12-12T17:21:28.158Z,34.73
2022-12-12T17:23:57.917Z,35.93
2022-12-12T17:26:27.668Z,41.50
2022-12-12T17:28:57.463Z,32.73
2022-12-12T17:31:27.355Z,36.27
2022-12-12T17:33:57.102Z,33.80
2022-12-12T17:36:26.563Z,35.68
2022-12-12T17:38:56.448Z,33.07
2022-12-12T17:41:26.266Z,35.37
2022-12-12T17:43:56.932Z,37.30
2022-12-12T17:46:28.095Z,24.45
2022-12-12T17:49:01.196Z,26.50
2022-12-12T17:51:30.967Z,32.03
2022-12-12T17:54:00.734Z,29.03
2022-12-12T17:56:30.795Z,33.35
2022-12-12T17:59:02.483Z,30.70
2022-12-12T18:01:32.761Z,30.03
2022-12-12T18:04:03.588Z,33.00
2022-12-12T18:06:35.880Z,38.17
2022-12-12T18:09:06.068Z,42.63
2022-12-12T18:11:38.147Z,40.97
2022-12-12T18:14:12.859Z,34.20
2022-12-12T18:16:44.811Z,34.83
2022-12-12T18:19:14.867Z,29.57
2022-12-12T18:22:02.060Z,31.80
2022-12-12T18:24:18.965Z,30.43
2022-12-12T18:26:54.274Z,29.67
2022-12-12T18:29:24.650Z,26.70
2022-12-12T18:31:54.752Z,31.27
2022-12-12T18:34:25.393Z,32.13
2022-12-12T18:36:55.133Z,31.17
2022-12-12T18:39:25.962Z,33.87
2022-12-12T18:41:56.038Z,28.98
2022-12-12T18:44:25.857Z,31.27
2022-12-12T18:46:55.685Z,30.47
2022-12-12T18:49:25.440Z,32.10
2022-12-12T18:51:55.441Z,31.57
2022-12-12T18:54:25.196Z,27.73
2022-12-12T18:56:54.927Z,31.63
2022-12-12T18:59:24.729Z,34.80
2022-12-12T19:01:54.563Z,33.03
2022-12-12T19:04:25.263Z,32.73
2022-12-12T19:06:55.285Z,29.10
2022-12-12T19:09:25.022Z,33.03
2022-12-12T19:12:01.968Z,31.87
2022-12-12T19:14:35.666Z,29.77
2022-12-12T19:16:58.036Z,30.67
2022-12-12T19:19:27.799Z,28.73
2022-12-12T19:21:57.540Z,35.07
2022-12-12T19:24:28.098Z,32.85
2022-12-12T19:26:57.824Z,35.20
2022-12-12T19:29:27.881Z,35.80
2022-12-12T19:31:58.774Z,33.77
2022-12-12T19:34:28.545Z,32.27
2022-12-12T19:36:58.350Z,33.13
2022-12-12T19:39:28.137Z,32.17
2022-12-12T19:41:57.881Z,29.33
2022-12-12T19:44:27.556Z,28.27
2022-12-12T19:46:57.265Z,35.50
2022-12-12T19:49:27.293Z,33.30
2022-12-12T19:51:57.048Z,31.07
2022-12-12T19:54:26.949Z,33.77
2022-12-12T19:56:56.681Z,33.00
2022-12-12T19:59:26.310Z,37.60
2022-12-12T20:01:56.691Z,33.00
2022-12-12T20:04:27.140Z,39.33
2022-12-12T20:06:57.210Z,30.50
2022-12-12T20:09:29.934Z,43.03
2022-12-12T20:12:00.969Z,30.80
2022-12-12T20:14:33.969Z,40.17
2022-12-12T20:17:04.452Z,33.73
2022-12-12T20:19:34.271Z,36.67
2022-12-12T20:22:06.559Z,44.25
2022-12-12T20:24:37.787Z,41.90
2022-12-12T20:27:08.898Z,40.80
2022-12-12T20:29:38.911Z,41.43
2022-12-12T20:32:11.124Z,37.38
2022-12-12T20:34:40.858Z,38.83
2022-12-12T20:37:13.063Z,37.40
2022-12-12T20:39:42.117Z,32.83
2022-12-12T20:42:12.598Z,36.00
2022-12-12T20:44:42.654Z,38.73
2022-12-12T20:47:14.059Z,38.70
2022-12-12T20:49:43.874Z,37.90
2022-12-12T20:52:13.501Z,37.30
2022-12-12T20:54:43.574Z,36.60
2022-12-12T20:57:13.386Z,32.60
2022-12-12T20:59:43.119Z,42.93
2022-12-12T21:02:12.936Z,35.83
2022-12-12T21:04:42.733Z,34.70
2022-12-12T21:07:12.479Z,34.00
2022-12-12T21:09:42.206Z,33.67
2022-12-12T21:12:11.957Z,32.10
2022-12-12T21:14:41.696Z,34.57
2022-12-12T21:17:12.201Z,37.10
2022-12-12T21:19:42.084Z,32.53
2022-12-12T21:22:11.678Z,37.00
2022-12-12T21:24:41.486Z,34.80
2022-12-12T21:27:11.238Z,34.53
2022-12-12T21:29:41.037Z,40.77
2022-12-12T21:32:11.717Z,41.40
2022-12-12T21:34:41.452Z,37.97
2022-12-12T21:37:12.261Z,34.30
2022-12-12T21:39:42.193Z,35.27
2022-12-12T21:42:13.529Z,38.24
2022-12-12T21:44:45.792Z,36.40
2022-12-12T21:47:15.475Z,41.93
2022-12-12T21:49:45.224Z,44.30
2022-12-12T21:52:15.234Z,39.58
2022-12-12T21:54:44.977Z,35.90
2022-12-12T21:57:14.799Z,45.97
2022-12-12T21:59:44.537Z,42.63
2022-12-12T22:02:14.289Z,39.23
2022-12-12T22:04:44.036Z,35.97
2022-12-12T22:07:13.808Z,41.63
2022-12-12T22:09:44.477Z,38.63
2022-12-12T22:12:18.543Z,45.15
2022-12-12T22:14:47.046Z,43.73
2022-12-12T22:17:16.800Z,42.60
2022-12-12T22:19:46.544Z,38.00
2022-12-12T22:22:16.323Z,36.70
2022-12-12T22:24:46.058Z,46.43
2022-12-12T22:27:15.811Z,43.93
2022-12-12T22:29:45.274Z,41.10
2022-12-12T22:32:15.029Z,38.93
2022-12-12T22:34:46.811Z,39.20
2022-12-12T22:37:16.570Z,45.87
2022-12-12T22:39:46.765Z,39.63
2022-12-12T22:42:16.203Z,45.70
2022-12-12T22:44:46.529Z,43.92
2022-12-12T22:47:16.264Z,41.20
2022-12-12T22:49:46.003Z,41.00
2022-12-12T22:52:15.459Z,38.25
2022-12-12T22:54:45.504Z,41.70
2022-12-12T22:57:16.688Z,42.00
2022-12-12T22:59:46.446Z,37.47
2022-12-12T23:02:21.523Z,43.57
2022-12-12T23:04:47.700Z,40.93
2022-12-12T23:07:17.576Z,40.30
2022-12-12T23:09:49.253Z,39.23
2022-12-12T23:12:22.778Z,36.80
2022-12-12T23:14:52.516Z,45.73
2022-12-12T23:17:22.255Z,44.53
2022-12-12T23:19:52.079Z,41.63
2022-12-12T23:22:21.807Z,38.80
2022-12-12T23:24:51.623Z,41.10
2022-12-12T23:27:21.500Z,35.97
2022-12-12T23:29:51.615Z,38.95
2022-12-12T23:32:21.283Z,36.90
2022-12-12T23:34:51.108Z,36.87
2022-12-12T23:37:21.576Z,42.43
2022-12-12T23:39:52.102Z,40.85
2022-12-12T23:42:21.532Z,42.83
2022-12-12T23:44:51.629Z,42.78
2022-12-12T23:47:21.348Z,37.57
2022-12-12T23:49:51.090Z,37.97
2022-12-12T23:52:20.539Z,40.93
2022-12-12T23:54:50.567Z,34.95
2022-12-12T23:57:20.676Z,39.33
2022-12-12T23:59:50.474Z,45.83
